首页
METAR-TAF:

METAR-TAF

机场 :

Kinloss, 苏格兰

纬度: 57-39N, 经度: 003-34W, 海拔: 7米

当前天气观测

该预报发布于29分钟前的16:50 UTC
风速7节,风向东北
温度 21°C
湿度 56%
气压 1023 hPa
能见度10公里或以上

METAR: EGQK 011650Z AUTO 05007KT 9999 BKN080/// 21/12 Q1023

时间: 18:19 (17:19 UTC)

预报

该预报发布于3小时和16分钟前的14:03 UTC
预报有效从01日的 15点(UTC)到 02日的 09点(UTC)
风速8节,风向东转东北
能见度10公里或以上
少量云层高于3500英尺
几率 40%
从 02日的 07点(UTC)到 02日的 09点(UTC)
能見度: 4000
散云层高于400英尺
轻雾

TAF: EGQK 011403Z 0115/0209 07008KT 9999 FEW035 PROB40 0207/0209 4000 BR SCT004

超过4000个机场的气象观测和天气预报(METAR&TAF报告)。

可查询的气象台以黄色和红色小点在地图上表示。

将鼠标移到小点上方,可查看气象台名称。

然后点击查看天气观测和预报。

如需切换地图:点击带黑十字的绿色按钮放大地图;点击带横线的绿色按钮缩小地图;或者点击绿色箭头查看邻近地区的地图。


METAR-TAF: